sensor_id;sensor_type;location;lat;lon;timestamp;P1;durP1;ratioP1;P2;durP2;ratioP2
5559;SDS011;2803;47.916;8.074;2022-11-03T00:01:56;4.57;;;1.93;;
5559;SDS011;2803;47.916;8.074;2022-11-03T00:04:23;2.27;;;1.70;;
5559;SDS011;2803;47.916;8.074;2022-11-03T00:06:50;4.80;;;1.87;;
5559;SDS011;2803;47.916;8.074;2022-11-03T00:09:18;2.80;;;1.60;;
5559;SDS011;2803;47.916;8.074;2022-11-03T00:11:46;4.53;;;1.67;;
5559;SDS011;2803;47.916;8.074;2022-11-03T00:14:15;3.30;;;1.80;;
5559;SDS011;2803;47.916;8.074;2022-11-03T00:16:44;7.13;;;1.60;;
5559;SDS011;2803;47.916;8.074;2022-11-03T00:19:11;3.03;;;1.73;;
5559;SDS011;2803;47.916;8.074;2022-11-03T00:21:40;4.13;;;1.60;;
5559;SDS011;2803;47.916;8.074;2022-11-03T00:24:06;5.83;;;1.60;;
5559;SDS011;2803;47.916;8.074;2022-11-03T00:26:33;3.40;;;1.60;;
5559;SDS011;2803;47.916;8.074;2022-11-03T00:29:04;5.33;;;2.53;;
5559;SDS011;2803;47.916;8.074;2022-11-03T00:31:33;2.90;;;1.73;;
5559;SDS011;2803;47.916;8.074;2022-11-03T00:34:02;3.83;;;2.00;;
5559;SDS011;2803;47.916;8.074;2022-11-03T00:36:31;4.20;;;1.43;;
5559;SDS011;2803;47.916;8.074;2022-11-03T00:38:59;3.20;;;1.53;;
5559;SDS011;2803;47.916;8.074;2022-11-03T00:41:26;4.30;;;1.20;;
5559;SDS011;2803;47.916;8.074;2022-11-03T00:43:53;2.30;;;1.53;;
5559;SDS011;2803;47.916;8.074;2022-11-03T00:46:21;2.00;;;1.20;;
5559;SDS011;2803;47.916;8.074;2022-11-03T00:48:49;1.90;;;1.40;;
5559;SDS011;2803;47.916;8.074;2022-11-03T00:51:18;2.43;;;1.40;;
5559;SDS011;2803;47.916;8.074;2022-11-03T00:53:47;2.00;;;1.40;;
5559;SDS011;2803;47.916;8.074;2022-11-03T00:56:16;3.33;;;1.80;;
5559;SDS011;2803;47.916;8.074;2022-11-03T00:58:43;2.90;;;1.70;;
5559;SDS011;2803;47.916;8.074;2022-11-03T01:01:11;4.33;;;1.50;;
5559;SDS011;2803;47.916;8.074;2022-11-03T01:03:40;3.53;;;1.57;;
5559;SDS011;2803;47.916;8.074;2022-11-03T01:06:31;2.27;;;1.90;;
5559;SDS011;2803;47.916;8.074;2022-11-03T01:09:13;3.00;;;1.67;;
5559;SDS011;2803;47.916;8.074;2022-11-03T01:11:39;3.63;;;1.70;;
5559;SDS011;2803;47.916;8.074;2022-11-03T01:14:10;6.53;;;1.77;;
5559;SDS011;2803;47.916;8.074;2022-11-03T01:16:38;3.20;;;2.00;;
5559;SDS011;2803;47.916;8.074;2022-11-03T01:19:05;3.00;;;1.33;;
5559;SDS011;2803;47.916;8.074;2022-11-03T01:21:33;3.50;;;1.37;;
5559;SDS011;2803;47.916;8.074;2022-11-03T01:24:00;7.43;;;1.73;;
5559;SDS011;2803;47.916;8.074;2022-11-03T01:26:28;2.63;;;1.40;;
5559;SDS011;2803;47.916;8.074;2022-11-03T01:28:57;2.70;;;1.40;;
5559;SDS011;2803;47.916;8.074;2022-11-03T01:31:25;2.63;;;1.50;;
5559;SDS011;2803;47.916;8.074;2022-11-03T01:33:52;2.70;;;1.50;;
5559;SDS011;2803;47.916;8.074;2022-11-03T01:36:20;3.23;;;1.50;;
5559;SDS011;2803;47.916;8.074;2022-11-03T01:38:49;4.30;;;1.90;;
5559;SDS011;2803;47.916;8.074;2022-11-03T01:41:16;2.03;;;1.60;;
5559;SDS011;2803;47.916;8.074;2022-11-03T01:43:46;2.30;;;1.30;;
5559;SDS011;2803;47.916;8.074;2022-11-03T01:46:15;9.30;;;1.60;;
5559;SDS011;2803;47.916;8.074;2022-11-03T01:48:46;2.80;;;1.20;;
5559;SDS011;2803;47.916;8.074;2022-11-03T01:51:14;2.53;;;1.20;;
5559;SDS011;2803;47.916;8.074;2022-11-03T01:53:44;4.53;;;1.30;;
5559;SDS011;2803;47.916;8.074;2022-11-03T01:56:14;3.37;;;1.20;;
5559;SDS011;2803;47.916;8.074;2022-11-03T01:58:42;2.37;;;1.33;;
5559;SDS011;2803;47.916;8.074;2022-11-03T02:01:13;2.23;;;1.20;;
5559;SDS011;2803;47.916;8.074;2022-11-03T02:03:41;2.70;;;1.30;;
5559;SDS011;2803;47.916;8.074;2022-11-03T02:06:11;7.03;;;1.57;;
5559;SDS011;2803;47.916;8.074;2022-11-03T02:08:39;3.43;;;1.40;;
5559;SDS011;2803;47.916;8.074;2022-11-03T02:11:10;3.20;;;1.33;;
5559;SDS011;2803;47.916;8.074;2022-11-03T02:13:53;4.63;;;1.47;;
5559;SDS011;2803;47.916;8.074;2022-11-03T02:16:19;6.37;;;1.50;;
5559;SDS011;2803;47.916;8.074;2022-11-03T02:18:48;2.50;;;1.40;;
5559;SDS011;2803;47.916;8.074;2022-11-03T02:21:20;2.07;;;1.47;;
5559;SDS011;2803;47.916;8.074;2022-11-03T02:23:52;4.20;;;1.27;;
5559;SDS011;2803;47.916;8.074;2022-11-03T02:26:27;2.30;;;1.57;;
5559;SDS011;2803;47.916;8.074;2022-11-03T02:28:54;2.07;;;1.30;;
5559;SDS011;2803;47.916;8.074;2022-11-03T02:31:22;2.37;;;1.63;;
5559;SDS011;2803;47.916;8.074;2022-11-03T02:33:54;3.33;;;1.47;;
5559;SDS011;2803;47.916;8.074;2022-11-03T02:36:27;1.83;;;1.40;;
5559;SDS011;2803;47.916;8.074;2022-11-03T02:39:01;3.40;;;1.13;;
5559;SDS011;2803;47.916;8.074;2022-11-03T02:41:33;3.80;;;1.30;;
5559;SDS011;2803;47.916;8.074;2022-11-03T02:44:02;4.33;;;1.63;;
5559;SDS011;2803;47.916;8.074;2022-11-03T02:46:30;1.57;;;1.40;;
5559;SDS011;2803;47.916;8.074;2022-11-03T02:48:59;2.87;;;1.77;;
5559;SDS011;2803;47.916;8.074;2022-11-03T02:51:26;5.73;;;1.80;;
5559;SDS011;2803;47.916;8.074;2022-11-03T02:53:58;6.00;;;1.80;;
5559;SDS011;2803;47.916;8.074;2022-11-03T02:56:29;1.77;;;1.20;;
5559;SDS011;2803;47.916;8.074;2022-11-03T02:58:59;5.00;;;1.90;;
5559;SDS011;2803;47.916;8.074;2022-11-03T03:01:29;3.70;;;1.57;;
5559;SDS011;2803;47.916;8.074;2022-11-03T03:04:02;1.83;;;1.40;;
5559;SDS011;2803;47.916;8.074;2022-11-03T03:06:31;2.63;;;1.77;;
5559;SDS011;2803;47.916;8.074;2022-11-03T03:09:02;1.93;;;1.40;;
5559;SDS011;2803;47.916;8.074;2022-11-03T03:11:32;5.10;;;1.97;;
5559;SDS011;2803;47.916;8.074;2022-11-03T03:14:05;1.87;;;1.60;;
5559;SDS011;2803;47.916;8.074;2022-11-03T03:16:36;8.23;;;2.90;;
5559;SDS011;2803;47.916;8.074;2022-11-03T03:19:10;4.00;;;1.53;;
5559;SDS011;2803;47.916;8.074;2022-11-03T03:21:44;3.70;;;1.40;;
5559;SDS011;2803;47.916;8.074;2022-11-03T03:24:17;4.27;;;1.80;;
5559;SDS011;2803;47.916;8.074;2022-11-03T03:26:48;1.97;;;1.30;;
5559;SDS011;2803;47.916;8.074;2022-11-03T03:29:19;3.07;;;1.70;;
5559;SDS011;2803;47.916;8.074;2022-11-03T03:31:51;2.90;;;1.67;;
5559;SDS011;2803;47.916;8.074;2022-11-03T03:34:21;4.70;;;1.63;;
5559;SDS011;2803;47.916;8.074;2022-11-03T03:36:50;2.07;;;1.37;;
5559;SDS011;2803;47.916;8.074;2022-11-03T03:39:21;2.13;;;1.70;;
5559;SDS011;2803;47.916;8.074;2022-11-03T03:41:51;3.37;;;1.90;;
5559;SDS011;2803;47.916;8.074;2022-11-03T03:44:22;1.87;;;1.30;;
5559;SDS011;2803;47.916;8.074;2022-11-03T03:46:50;5.40;;;2.10;;
5559;SDS011;2803;47.916;8.074;2022-11-03T03:49:23;1.90;;;1.70;;
5559;SDS011;2803;47.916;8.074;2022-11-03T03:51:49;3.03;;;2.10;;
5559;SDS011;2803;47.916;8.074;2022-11-03T03:54:16;5.03;;;2.00;;
5559;SDS011;2803;47.916;8.074;2022-11-03T03:56:44;4.73;;;1.90;;
5559;SDS011;2803;47.916;8.074;2022-11-03T03:59:17;5.30;;;2.43;;
5559;SDS011;2803;47.916;8.074;2022-11-03T04:01:45;2.17;;;1.23;;
5559;SDS011;2803;47.916;8.074;2022-11-03T04:04:12;1.70;;;1.37;;
5559;SDS011;2803;47.916;8.074;2022-11-03T04:06:38;4.17;;;2.20;;
5559;SDS011;2803;47.916;8.074;2022-11-03T04:09:05;3.93;;;1.83;;
5559;SDS011;2803;47.916;8.074;2022-11-03T04:11:31;2.13;;;1.63;;
5559;SDS011;2803;47.916;8.074;2022-11-03T04:14:12;2.57;;;1.40;;
5559;SDS011;2803;47.916;8.074;2022-11-03T04:16:54;3.57;;;1.67;;
5559;SDS011;2803;47.916;8.074;2022-11-03T04:19:34;1.93;;;1.43;;
5559;SDS011;2803;47.916;8.074;2022-11-03T04:22:15;1.67;;;1.37;;
5559;SDS011;2803;47.916;8.074;2022-11-03T04:24:42;3.10;;;1.40;;
5559;SDS011;2803;47.916;8.074;2022-11-03T04:27:15;1.47;;;1.30;;
5559;SDS011;2803;47.916;8.074;2022-11-03T04:29:54;1.70;;;1.50;;
5559;SDS011;2803;47.916;8.074;2022-11-03T04:32:23;3.37;;;1.40;;
5559;SDS011;2803;47.916;8.074;2022-11-03T04:34:51;2.20;;;1.53;;
5559;SDS011;2803;47.916;8.074;2022-11-03T04:37:17;2.00;;;1.50;;
5559;SDS011;2803;47.916;8.074;2022-11-03T04:39:44;4.27;;;1.73;;
5559;SDS011;2803;47.916;8.074;2022-11-03T04:42:12;2.43;;;1.50;;
5559;SDS011;2803;47.916;8.074;2022-11-03T04:44:42;3.50;;;1.03;;
5559;SDS011;2803;47.916;8.074;2022-11-03T04:47:08;2.13;;;1.50;;
5559;SDS011;2803;47.916;8.074;2022-11-03T04:49:39;1.60;;;1.50;;
5559;SDS011;2803;47.916;8.074;2022-11-03T04:52:08;2.80;;;1.60;;
5559;SDS011;2803;47.916;8.074;2022-11-03T04:54:38;5.23;;;1.40;;
5559;SDS011;2803;47.916;8.074;2022-11-03T04:57:07;1.87;;;1.43;;
5559;SDS011;2803;47.916;8.074;2022-11-03T04:59:36;2.10;;;1.40;;
5559;SDS011;2803;47.916;8.074;2022-11-03T05:02:04;4.43;;;1.87;;
5559;SDS011;2803;47.916;8.074;2022-11-03T05:04:36;2.67;;;1.43;;
5559;SDS011;2803;47.916;8.074;2022-11-03T05:07:07;2.73;;;1.77;;
5559;SDS011;2803;47.916;8.074;2022-11-03T05:09:46;5.20;;;1.90;;
5559;SDS011;2803;47.916;8.074;2022-11-03T05:12:13;3.70;;;2.23;;
5559;SDS011;2803;47.916;8.074;2022-11-03T05:14:39;5.97;;;2.00;;
5559;SDS011;2803;47.916;8.074;2022-11-03T05:17:10;3.30;;;1.90;;
5559;SDS011;2803;47.916;8.074;2022-11-03T05:19:46;2.33;;;1.40;;
5559;SDS011;2803;47.916;8.074;2022-11-03T05:22:14;5.33;;;1.87;;
5559;SDS011;2803;47.916;8.074;2022-11-03T05:24:43;3.97;;;2.00;;
5559;SDS011;2803;47.916;8.074;2022-11-03T05:27:10;5.73;;;2.37;;
5559;SDS011;2803;47.916;8.074;2022-11-03T05:29:41;2.40;;;1.70;;
5559;SDS011;2803;47.916;8.074;2022-11-03T05:32:09;7.07;;;1.60;;
5559;SDS011;2803;47.916;8.074;2022-11-03T05:34:39;3.30;;;1.77;;
5559;SDS011;2803;47.916;8.074;2022-11-03T05:37:12;2.30;;;1.53;;
5559;SDS011;2803;47.916;8.074;2022-11-03T05:39:52;3.23;;;1.60;;
5559;SDS011;2803;47.916;8.074;2022-11-03T05:42:24;2.40;;;1.70;;
5559;SDS011;2803;47.916;8.074;2022-11-03T05:44:56;2.50;;;1.70;;
5559;SDS011;2803;47.916;8.074;2022-11-03T05:47:25;14.20;;;1.90;;
5559;SDS011;2803;47.916;8.074;2022-11-03T05:49:58;3.20;;;1.93;;
5559;SDS011;2803;47.916;8.074;2022-11-03T05:52:33;3.20;;;2.20;;
5559;SDS011;2803;47.916;8.074;2022-11-03T05:55:00;1.70;;;1.50;;
5559;SDS011;2803;47.916;8.074;2022-11-03T05:57:28;4.23;;;1.97;;
5559;SDS011;2803;47.916;8.074;2022-11-03T05:59:58;3.00;;;1.50;;
5559;SDS011;2803;47.916;8.074;2022-11-03T06:02:28;2.20;;;1.67;;
5559;SDS011;2803;47.916;8.074;2022-11-03T06:05:02;6.13;;;1.73;;
5559;SDS011;2803;47.916;8.074;2022-11-03T06:07:37;8.43;;;1.97;;
5559;SDS011;2803;47.916;8.074;2022-11-03T06:10:14;3.20;;;2.37;;
5559;SDS011;2803;47.916;8.074;2022-11-03T06:12:46;4.27;;;2.07;;
5559;SDS011;2803;47.916;8.074;2022-11-03T06:15:20;3.80;;;1.77;;
5559;SDS011;2803;47.916;8.074;2022-11-03T06:17:52;5.00;;;2.10;;
5559;SDS011;2803;47.916;8.074;2022-11-03T06:20:19;3.03;;;1.70;;
5559;SDS011;2803;47.916;8.074;2022-11-03T06:22:48;4.43;;;2.40;;
5559;SDS011;2803;47.916;8.074;2022-11-03T06:25:19;2.40;;;1.67;;
5559;SDS011;2803;47.916;8.074;2022-11-03T06:27:58;7.97;;;2.40;;
5559;SDS011;2803;47.916;8.074;2022-11-03T06:30:27;3.77;;;2.27;;
5559;SDS011;2803;47.916;8.074;2022-11-03T06:32:56;2.63;;;1.80;;
5559;SDS011;2803;47.916;8.074;2022-11-03T06:35:25;4.93;;;2.00;;
5559;SDS011;2803;47.916;8.074;2022-11-03T06:37:53;5.53;;;1.90;;
5559;SDS011;2803;47.916;8.074;2022-11-03T06:40:28;2.70;;;1.97;;
5559;SDS011;2803;47.916;8.074;2022-11-03T06:42:58;4.33;;;2.30;;
5559;SDS011;2803;47.916;8.074;2022-11-03T06:45:26;2.80;;;2.40;;
5559;SDS011;2803;47.916;8.074;2022-11-03T06:47:53;2.93;;;2.00;;
5559;SDS011;2803;47.916;8.074;2022-11-03T06:50:21;3.10;;;2.03;;
5559;SDS011;2803;47.916;8.074;2022-11-03T06:52:51;2.63;;;1.90;;
5559;SDS011;2803;47.916;8.074;2022-11-03T06:55:22;2.60;;;1.90;;
5559;SDS011;2803;47.916;8.074;2022-11-03T06:57:51;5.80;;;2.20;;
5559;SDS011;2803;47.916;8.074;2022-11-03T07:00:20;3.50;;;2.47;;
5559;SDS011;2803;47.916;8.074;2022-11-03T07:02:51;6.07;;;2.70;;
5559;SDS011;2803;47.916;8.074;2022-11-03T07:05:22;5.17;;;2.80;;
5559;SDS011;2803;47.916;8.074;2022-11-03T07:07:51;3.90;;;2.90;;
5559;SDS011;2803;47.916;8.074;2022-11-03T07:10:22;3.97;;;2.70;;
5559;SDS011;2803;47.916;8.074;2022-11-03T07:12:50;4.50;;;2.40;;
5559;SDS011;2803;47.916;8.074;2022-11-03T07:15:19;4.80;;;2.43;;
5559;SDS011;2803;47.916;8.074;2022-11-03T07:17:51;4.17;;;2.60;;
5559;SDS011;2803;47.916;8.074;2022-11-03T07:20:18;6.73;;;3.10;;
5559;SDS011;2803;47.916;8.074;2022-11-03T07:22:45;5.13;;;2.80;;
5559;SDS011;2803;47.916;8.074;2022-11-03T07:25:15;7.60;;;3.17;;
5559;SDS011;2803;47.916;8.074;2022-11-03T07:27:45;4.67;;;3.30;;
5559;SDS011;2803;47.916;8.074;2022-11-03T07:30:17;4.40;;;3.30;;
5559;SDS011;2803;47.916;8.074;2022-11-03T07:32:45;5.70;;;3.23;;
5559;SDS011;2803;47.916;8.074;2022-11-03T07:35:20;7.93;;;2.70;;
5559;SDS011;2803;47.916;8.074;2022-11-03T07:37:53;7.83;;;3.53;;
5559;SDS011;2803;47.916;8.074;2022-11-03T07:40:21;5.20;;;2.80;;
5559;SDS011;2803;47.916;8.074;2022-11-03T07:42:50;8.27;;;3.13;;
5559;SDS011;2803;47.916;8.074;2022-11-03T07:45:30;4.33;;;2.60;;
5559;SDS011;2803;47.916;8.074;2022-11-03T07:48:01;4.37;;;2.70;;
5559;SDS011;2803;47.916;8.074;2022-11-03T07:50:30;5.53;;;3.30;;
5559;SDS011;2803;47.916;8.074;2022-11-03T07:52:57;7.77;;;3.60;;
5559;SDS011;2803;47.916;8.074;2022-11-03T07:55:24;5.73;;;3.63;;
5559;SDS011;2803;47.916;8.074;2022-11-03T07:57:52;3.80;;;3.37;;
5559;SDS011;2803;47.916;8.074;2022-11-03T08:00:19;4.20;;;3.57;;
5559;SDS011;2803;47.916;8.074;2022-11-03T08:02:47;3.87;;;3.00;;
5559;SDS011;2803;47.916;8.074;2022-11-03T08:05:17;5.27;;;3.07;;
5559;SDS011;2803;47.916;8.074;2022-11-03T08:07:43;6.80;;;3.13;;
5559;SDS011;2803;47.916;8.074;2022-11-03T08:10:10;4.30;;;3.13;;
5559;SDS011;2803;47.916;8.074;2022-11-03T08:12:37;4.87;;;2.17;;
5559;SDS011;2803;47.916;8.074;2022-11-03T08:15:06;3.53;;;2.90;;
5559;SDS011;2803;47.916;8.074;2022-11-03T08:17:32;6.23;;;3.43;;
5559;SDS011;2803;47.916;8.074;2022-11-03T08:19:59;6.10;;;3.20;;
5559;SDS011;2803;47.916;8.074;2022-11-03T08:22:26;4.00;;;3.00;;
5559;SDS011;2803;47.916;8.074;2022-11-03T08:24:52;4.93;;;2.63;;
5559;SDS011;2803;47.916;8.074;2022-11-03T08:27:19;3.77;;;2.50;;
5559;SDS011;2803;47.916;8.074;2022-11-03T08:29:45;3.90;;;2.90;;
5559;SDS011;2803;47.916;8.074;2022-11-03T08:32:14;3.13;;;2.60;;
5559;SDS011;2803;47.916;8.074;2022-11-03T08:34:41;4.63;;;3.33;;
5559;SDS011;2803;47.916;8.074;2022-11-03T08:37:08;3.60;;;2.80;;
5559;SDS011;2803;47.916;8.074;2022-11-03T08:39:35;6.20;;;3.20;;
5559;SDS011;2803;47.916;8.074;2022-11-03T08:42:02;4.77;;;3.40;;
5559;SDS011;2803;47.916;8.074;2022-11-03T08:44:29;4.30;;;2.83;;
5559;SDS011;2803;47.916;8.074;2022-11-03T08:46:55;3.93;;;3.17;;
5559;SDS011;2803;47.916;8.074;2022-11-03T08:49:23;3.13;;;2.60;;
5559;SDS011;2803;47.916;8.074;2022-11-03T08:51:50;4.37;;;3.13;;
5559;SDS011;2803;47.916;8.074;2022-11-03T08:54:17;5.77;;;3.00;;
5559;SDS011;2803;47.916;8.074;2022-11-03T08:56:44;5.70;;;3.60;;
5559;SDS011;2803;47.916;8.074;2022-11-03T08:59:12;6.27;;;3.33;;
5559;SDS011;2803;47.916;8.074;2022-11-03T09:01:39;5.20;;;3.13;;
5559;SDS011;2803;47.916;8.074;2022-11-03T09:04:06;5.00;;;3.37;;
5559;SDS011;2803;47.916;8.074;2022-11-03T09:06:34;3.30;;;2.70;;
5559;SDS011;2803;47.916;8.074;2022-11-03T09:09:01;8.50;;;3.57;;
5559;SDS011;2803;47.916;8.074;2022-11-03T09:11:27;5.00;;;2.90;;
5559;SDS011;2803;47.916;8.074;2022-11-03T09:13:54;11.60;;;2.53;;
5559;SDS011;2803;47.916;8.074;2022-11-03T09:16:21;2.83;;;2.23;;
5559;SDS011;2803;47.916;8.074;2022-11-03T09:18:48;4.00;;;2.30;;
5559;SDS011;2803;47.916;8.074;2022-11-03T09:21:15;2.63;;;2.20;;
5559;SDS011;2803;47.916;8.074;2022-11-03T09:23:43;3.20;;;2.33;;
5559;SDS011;2803;47.916;8.074;2022-11-03T09:26:10;4.37;;;2.30;;
5559;SDS011;2803;47.916;8.074;2022-11-03T09:28:38;2.50;;;2.10;;
5559;SDS011;2803;47.916;8.074;2022-11-03T09:31:09;16.47;;;2.37;;
5559;SDS011;2803;47.916;8.074;2022-11-03T09:33:36;3.50;;;2.07;;
5559;SDS011;2803;47.916;8.074;2022-11-03T09:36:02;4.67;;;2.10;;
5559;SDS011;2803;47.916;8.074;2022-11-03T09:38:29;4.00;;;2.30;;
5559;SDS011;2803;47.916;8.074;2022-11-03T09:40:57;5.43;;;2.57;;
5559;SDS011;2803;47.916;8.074;2022-11-03T09:43:24;4.90;;;2.30;;
5559;SDS011;2803;47.916;8.074;2022-11-03T09:45:51;5.73;;;3.07;;
5559;SDS011;2803;47.916;8.074;2022-11-03T09:48:18;4.67;;;2.23;;
5559;SDS011;2803;47.916;8.074;2022-11-03T09:50:45;3.50;;;2.20;;
5559;SDS011;2803;47.916;8.074;2022-11-03T09:53:15;3.30;;;2.50;;
5559;SDS011;2803;47.916;8.074;2022-11-03T09:55:41;5.27;;;2.30;;
5559;SDS011;2803;47.916;8.074;2022-11-03T09:58:11;3.27;;;2.00;;
5559;SDS011;2803;47.916;8.074;2022-11-03T10:00:40;4.00;;;2.30;;
5559;SDS011;2803;47.916;8.074;2022-11-03T10:03:08;2.70;;;2.00;;
5559;SDS011;2803;47.916;8.074;2022-11-03T10:05:37;4.40;;;2.30;;
5559;SDS011;2803;47.916;8.074;2022-11-03T10:08:06;6.03;;;2.20;;
5559;SDS011;2803;47.916;8.074;2022-11-03T10:10:37;3.20;;;2.17;;
5559;SDS011;2803;47.916;8.074;2022-11-03T10:13:05;1.60;;;1.50;;
5559;SDS011;2803;47.916;8.074;2022-11-03T10:15:37;2.70;;;1.70;;
5559;SDS011;2803;47.916;8.074;2022-11-03T10:18:06;4.50;;;1.90;;
5559;SDS011;2803;47.916;8.074;2022-11-03T10:20:34;3.13;;;2.10;;
5559;SDS011;2803;47.916;8.074;2022-11-03T10:23:00;5.27;;;2.20;;
5559;SDS011;2803;47.916;8.074;2022-11-03T10:25:28;4.50;;;2.53;;
5559;SDS011;2803;47.916;8.074;2022-11-03T10:30:48;4.80;;;1.77;;
5559;SDS011;2803;47.916;8.074;2022-11-03T10:35:59;3.77;;;1.70;;
5559;SDS011;2803;47.916;8.074;2022-11-03T10:38:28;3.13;;;1.90;;
5559;SDS011;2803;47.916;8.074;2022-11-03T10:40:56;4.60;;;1.83;;
5559;SDS011;2803;47.916;8.074;2022-11-03T10:43:35;3.13;;;1.43;;
5559;SDS011;2803;47.916;8.074;2022-11-03T10:46:11;2.40;;;1.50;;
5559;SDS011;2803;47.916;8.074;2022-11-03T10:48:40;2.20;;;1.47;;
5559;SDS011;2803;47.916;8.074;2022-11-03T10:51:08;3.80;;;1.53;;
5559;SDS011;2803;47.916;8.074;2022-11-03T10:53:37;4.20;;;1.67;;
5559;SDS011;2803;47.916;8.074;2022-11-03T10:56:04;3.90;;;1.77;;
5559;SDS011;2803;47.916;8.074;2022-11-03T10:58:31;2.00;;;1.60;;
5559;SDS011;2803;47.916;8.074;2022-11-03T11:00:58;2.33;;;1.70;;
5559;SDS011;2803;47.916;8.074;2022-11-03T11:03:26;5.80;;;1.80;;
5559;SDS011;2803;47.916;8.074;2022-11-03T11:05:54;3.07;;;1.50;;
5559;SDS011;2803;47.916;8.074;2022-11-03T11:08:21;1.87;;;1.40;;
5559;SDS011;2803;47.916;8.074;2022-11-03T11:10:49;2.53;;;1.73;;
5559;SDS011;2803;47.916;8.074;2022-11-03T11:13:24;2.50;;;1.60;;
5559;SDS011;2803;47.916;8.074;2022-11-03T11:15:52;4.20;;;1.50;;
5559;SDS011;2803;47.916;8.074;2022-11-03T11:24:17;4.70;;;1.70;;
5559;SDS011;2803;47.916;8.074;2022-11-03T11:33:13;5.37;;;1.67;;
5559;SDS011;2803;47.916;8.074;2022-11-03T11:36:03;4.07;;;1.90;;
5559;SDS011;2803;47.916;8.074;2022-11-03T11:38:51;1.47;;;1.30;;
5559;SDS011;2803;47.916;8.074;2022-11-03T11:47:25;2.53;;;1.43;;
5559;SDS011;2803;47.916;8.074;2022-11-03T11:52:55;1.77;;;1.17;;
5559;SDS011;2803;47.916;8.074;2022-11-03T11:55:39;2.70;;;1.70;;
5559;SDS011;2803;47.916;8.074;2022-11-03T11:58:17;3.97;;;1.37;;
5559;SDS011;2803;47.916;8.074;2022-11-03T12:00:50;4.90;;;1.67;;
5559;SDS011;2803;47.916;8.074;2022-11-03T12:03:24;2.57;;;1.13;;
5559;SDS011;2803;47.916;8.074;2022-11-03T12:05:55;2.40;;;1.60;;
5559;SDS011;2803;47.916;8.074;2022-11-03T12:08:25;4.20;;;1.60;;
5559;SDS011;2803;47.916;8.074;2022-11-03T12:10:55;2.70;;;1.87;;
5559;SDS011;2803;47.916;8.074;2022-11-03T12:16:08;3.40;;;1.80;;
5559;SDS011;2803;47.916;8.074;2022-11-03T12:18:36;4.13;;;1.33;;
5559;SDS011;2803;47.916;8.074;2022-11-03T12:21:05;2.60;;;1.60;;
5559;SDS011;2803;47.916;8.074;2022-11-03T12:23:35;3.20;;;1.27;;
5559;SDS011;2803;47.916;8.074;2022-11-03T12:26:04;5.03;;;1.20;;
5559;SDS011;2803;47.916;8.074;2022-11-03T12:28:32;2.73;;;1.40;;
5559;SDS011;2803;47.916;8.074;2022-11-03T12:30:59;2.23;;;1.40;;
5559;SDS011;2803;47.916;8.074;2022-11-03T12:33:26;3.03;;;1.63;;
5559;SDS011;2803;47.916;8.074;2022-11-03T12:35:53;6.33;;;1.83;;
5559;SDS011;2803;47.916;8.074;2022-11-03T12:38:20;5.77;;;1.80;;
5559;SDS011;2803;47.916;8.074;2022-11-03T12:40:48;4.90;;;1.60;;
5559;SDS011;2803;47.916;8.074;2022-11-03T12:43:15;4.77;;;1.43;;
5559;SDS011;2803;47.916;8.074;2022-11-03T12:45:42;2.60;;;1.40;;
5559;SDS011;2803;47.916;8.074;2022-11-03T12:48:08;3.20;;;1.67;;
5559;SDS011;2803;47.916;8.074;2022-11-03T12:50:35;2.63;;;1.60;;
5559;SDS011;2803;47.916;8.074;2022-11-03T12:53:03;4.07;;;1.30;;
5559;SDS011;2803;47.916;8.074;2022-11-03T12:55:30;4.60;;;1.90;;
5559;SDS011;2803;47.916;8.074;2022-11-03T12:57:58;3.67;;;2.00;;
5559;SDS011;2803;47.916;8.074;2022-11-03T13:00:25;3.73;;;1.50;;
5559;SDS011;2803;47.916;8.074;2022-11-03T13:02:51;6.03;;;1.70;;
5559;SDS011;2803;47.916;8.074;2022-11-03T13:05:18;4.30;;;1.80;;
5559;SDS011;2803;47.916;8.074;2022-11-03T13:07:45;1.97;;;1.60;;
5559;SDS011;2803;47.916;8.074;2022-11-03T13:10:12;2.87;;;1.60;;
5559;SDS011;2803;47.916;8.074;2022-11-03T13:12:38;2.40;;;1.50;;
5559;SDS011;2803;47.916;8.074;2022-11-03T13:15:07;2.20;;;1.63;;
5559;SDS011;2803;47.916;8.074;2022-11-03T13:17:37;2.30;;;1.30;;
5559;SDS011;2803;47.916;8.074;2022-11-03T13:20:04;2.70;;;1.83;;
5559;SDS011;2803;47.916;8.074;2022-11-03T13:22:31;4.13;;;1.80;;
5559;SDS011;2803;47.916;8.074;2022-11-03T13:24:58;4.40;;;1.50;;
5559;SDS011;2803;47.916;8.074;2022-11-03T13:27:24;4.50;;;2.10;;
5559;SDS011;2803;47.916;8.074;2022-11-03T13:29:51;2.13;;;1.70;;
5559;SDS011;2803;47.916;8.074;2022-11-03T13:32:21;3.93;;;1.70;;
5559;SDS011;2803;47.916;8.074;2022-11-03T13:34:48;4.60;;;1.60;;
5559;SDS011;2803;47.916;8.074;2022-11-03T13:37:15;3.83;;;1.60;;
5559;SDS011;2803;47.916;8.074;2022-11-03T13:39:41;1.77;;;1.40;;
5559;SDS011;2803;47.916;8.074;2022-11-03T13:42:08;4.40;;;1.83;;
5559;SDS011;2803;47.916;8.074;2022-11-03T13:44:34;6.70;;;1.70;;
5559;SDS011;2803;47.916;8.074;2022-11-03T13:47:01;4.03;;;2.43;;
5559;SDS011;2803;47.916;8.074;2022-11-03T13:49:29;4.20;;;1.77;;
5559;SDS011;2803;47.916;8.074;2022-11-03T13:51:56;3.57;;;1.77;;
5559;SDS011;2803;47.916;8.074;2022-11-03T13:54:23;7.27;;;2.30;;
5559;SDS011;2803;47.916;8.074;2022-11-03T13:56:49;2.40;;;1.73;;
5559;SDS011;2803;47.916;8.074;2022-11-03T13:59:16;7.70;;;2.00;;
5559;SDS011;2803;47.916;8.074;2022-11-03T14:01:43;2.80;;;1.80;;
5559;SDS011;2803;47.916;8.074;2022-11-03T14:04:09;5.70;;;1.63;;
5559;SDS011;2803;47.916;8.074;2022-11-03T14:06:37;2.70;;;1.80;;
5559;SDS011;2803;47.916;8.074;2022-11-03T14:09:04;3.33;;;2.00;;
5559;SDS011;2803;47.916;8.074;2022-11-03T14:11:31;4.67;;;1.93;;
5559;SDS011;2803;47.916;8.074;2022-11-03T14:14:11;2.17;;;1.67;;
5559;SDS011;2803;47.916;8.074;2022-11-03T14:16:38;3.90;;;1.80;;
5559;SDS011;2803;47.916;8.074;2022-11-03T14:19:05;3.10;;;1.90;;
5559;SDS011;2803;47.916;8.074;2022-11-03T14:21:32;7.10;;;2.07;;
5559;SDS011;2803;47.916;8.074;2022-11-03T14:24:02;7.73;;;1.90;;
5559;SDS011;2803;47.916;8.074;2022-11-03T14:26:29;4.00;;;1.73;;
5559;SDS011;2803;47.916;8.074;2022-11-03T14:28:56;4.23;;;1.40;;
5559;SDS011;2803;47.916;8.074;2022-11-03T14:31:23;2.30;;;1.63;;
5559;SDS011;2803;47.916;8.074;2022-11-03T14:33:49;4.57;;;2.07;;
5559;SDS011;2803;47.916;8.074;2022-11-03T14:36:16;7.53;;;1.77;;
5559;SDS011;2803;47.916;8.074;2022-11-03T14:38:43;7.30;;;2.30;;
5559;SDS011;2803;47.916;8.074;2022-11-03T14:41:11;6.63;;;2.10;;
5559;SDS011;2803;47.916;8.074;2022-11-03T14:43:51;8.13;;;2.10;;
5559;SDS011;2803;47.916;8.074;2022-11-03T14:46:18;4.10;;;1.87;;
5559;SDS011;2803;47.916;8.074;2022-11-03T14:48:44;7.63;;;2.20;;
5559;SDS011;2803;47.916;8.074;2022-11-03T14:51:11;8.00;;;1.97;;
5559;SDS011;2803;47.916;8.074;2022-11-03T14:53:38;4.23;;;1.93;;
5559;SDS011;2803;47.916;8.074;2022-11-03T14:56:04;6.43;;;2.03;;
5559;SDS011;2803;47.916;8.074;2022-11-03T14:58:32;4.20;;;2.53;;
5559;SDS011;2803;47.916;8.074;2022-11-03T15:00:59;7.43;;;2.07;;
5559;SDS011;2803;47.916;8.074;2022-11-03T15:03:26;6.00;;;2.60;;
5559;SDS011;2803;47.916;8.074;2022-11-03T15:05:52;10.00;;;3.13;;
5559;SDS011;2803;47.916;8.074;2022-11-03T15:08:20;5.47;;;3.07;;
5559;SDS011;2803;47.916;8.074;2022-11-03T15:10:47;5.83;;;3.00;;
5559;SDS011;2803;47.916;8.074;2022-11-03T15:13:14;8.20;;;2.53;;
5559;SDS011;2803;47.916;8.074;2022-11-03T15:15:42;7.20;;;2.50;;
5559;SDS011;2803;47.916;8.074;2022-11-03T15:18:09;3.93;;;2.07;;
5559;SDS011;2803;47.916;8.074;2022-11-03T15:20:36;4.03;;;2.10;;
5559;SDS011;2803;47.916;8.074;2022-11-03T15:23:02;2.23;;;1.53;;
5559;SDS011;2803;47.916;8.074;2022-11-03T15:25:30;5.40;;;1.90;;
5559;SDS011;2803;47.916;8.074;2022-11-03T15:27:57;2.03;;;1.47;;
5559;SDS011;2803;47.916;8.074;2022-11-03T15:30:23;4.57;;;2.07;;
5559;SDS011;2803;47.916;8.074;2022-11-03T15:32:52;2.60;;;1.63;;
5559;SDS011;2803;47.916;8.074;2022-11-03T15:35:20;4.13;;;2.30;;
5559;SDS011;2803;47.916;8.074;2022-11-03T15:37:47;9.00;;;1.97;;
5559;SDS011;2803;47.916;8.074;2022-11-03T15:40:14;6.30;;;1.97;;
5559;SDS011;2803;47.916;8.074;2022-11-03T15:42:42;5.30;;;2.33;;
5559;SDS011;2803;47.916;8.074;2022-11-03T15:45:10;5.00;;;1.87;;
5559;SDS011;2803;47.916;8.074;2022-11-03T15:47:38;4.77;;;2.00;;
5559;SDS011;2803;47.916;8.074;2022-11-03T15:50:06;9.30;;;1.93;;
5559;SDS011;2803;47.916;8.074;2022-11-03T15:52:34;4.93;;;2.10;;
5559;SDS011;2803;47.916;8.074;2022-11-03T15:55:01;2.47;;;1.63;;
5559;SDS011;2803;47.916;8.074;2022-11-03T15:57:28;3.90;;;1.63;;